Time;durP1;ratioP1;P1;durP2;ratioP2;P2;SDS_P1;SDS_P2;PMS_P1;PMS_P2;Temp;Humidity;BMP_temperature;BMP_pressure;BME280_temperature;BME280_humidity;BME280_pressure;Samples;Min_cycle;Max_cycle;Signal;HPM_P1;HPM_P2
2022/09/16 00:00:58;;;;;;;5.70;3.60;;;;;;;24.75;41.37;94570.88;6166223;28;103238;-75
2022/09/16 00:04:02;;;;;;;4.27;3.57;;;;;;;24.76;41.41;94581.22;6166209;28;103017;-75
2022/09/16 00:07:06;;;;;;;8.60;4.57;;;;;;;24.77;41.55;94579.34;6157966;28;103330;-74
2022/09/16 00:10:10;;;;;;;6.07;4.00;;;;;;;24.76;41.57;94556.38;6165298;28;103105;-75
2022/09/16 00:13:14;;;;;;;7.23;4.20;;;;;;;24.75;41.42;94558.25;6166178;28;103234;-74
2022/09/16 00:16:19;;;;;;;6.20;4.00;;;;;;;24.75;41.51;94565.50;6166480;28;103442;-75
2022/09/16 00:19:22;;;;;;;4.70;4.07;;;;;;;24.75;41.50;94558.25;6155969;28;103191;-75
2022/09/16 00:22:28;;;;;;;5.30;4.13;;;;;;;24.75;41.59;94554.81;6165775;28;103701;-75
2022/09/16 00:25:32;;;;;;;6.03;3.60;;;;;;;24.74;41.86;94577.34;6164404;28;103238;-74
2022/09/16 00:28:36;;;;;;;6.17;4.27;;;;;;;24.71;41.75;94572.66;6161633;28;103261;-75
2022/09/16 00:31:39;;;;;;;7.30;3.87;;;;;;;24.73;41.80;94554.38;6161358;28;103372;-76
2022/09/16 00:34:42;;;;;;;6.03;3.47;;;;;;;24.72;41.94;94564.28;6165610;28;103164;-75
2022/09/16 00:37:46;;;;;;;4.60;3.30;;;;;;;24.71;41.75;94553.91;6165563;28;103219;-76
2022/09/16 00:40:50;;;;;;;6.63;3.60;;;;;;;24.72;41.79;94563.50;6156793;28;103728;-76
2022/09/16 00:43:56;;;;;;;7.77;4.00;;;;;;;24.72;41.70;94564.28;6166127;28;106401;-76
2022/09/16 00:46:59;;;;;;;6.10;3.73;;;;;;;24.70;41.52;94560.38;6165941;28;103906;-75
2022/09/16 00:50:08;;;;;;;5.47;3.60;;;;;;;24.72;41.88;94585.69;6164435;28;103108;-75
2022/09/16 00:53:17;;;;;;;9.23;4.13;;;;;;;24.72;41.54;94571.53;6157552;28;103558;-77
2022/09/16 00:56:22;;;;;;;5.60;3.77;;;;;;;24.71;41.65;94572.66;6148511;28;103963;-76
2022/09/16 00:59:28;;;;;;;5.47;3.90;;;;;;;24.67;41.54;94550.28;6164665;28;103113;-75
2022/09/16 01:02:32;;;;;;;3.90;3.10;;;;;;;24.72;41.45;94574.22;6161028;28;103480;-75
2022/09/16 01:05:37;;;;;;;6.27;4.03;;;;;;;24.73;41.75;94591.81;6160090;28;103109;-75
2022/09/16 01:08:42;;;;;;;5.40;3.47;;;;;;;24.71;41.61;94588.72;6164654;28;103099;-76
2022/09/16 01:11:45;;;;;;;7.40;4.50;;;;;;;24.69;41.90;94589.00;6165386;28;103279;-77
2022/09/16 01:14:55;;;;;;;8.00;4.80;;;;;;;24.69;41.83;94580.22;6158114;28;106625;-74
2022/09/16 01:18:09;;;;;;;7.60;4.20;;;;;;;24.69;41.89;94580.97;6164957;28;103221;-76
2022/09/16 01:21:28;;;;;;;8.30;3.87;;;;;;;24.69;41.83;94575.63;6165103;28;103079;-77
2022/09/16 01:25:00;;;;;;;5.13;3.50;;;;;;;24.69;41.62;94588.22;6164680;28;103252;-74
2022/09/16 01:28:31;;;;;;;8.57;3.90;;;;;;;24.68;41.81;94584.78;6157265;28;103257;-75
2022/09/16 01:31:42;;;;;;;6.00;3.83;;;;;;;24.69;41.84;94601.63;6165454;28;105478;-76
2022/09/16 01:34:56;;;;;;;5.73;3.57;;;;;;;24.69;41.72;94590.91;6164436;28;103264;-75
2022/09/16 01:38:09;;;;;;;9.40;3.80;;;;;;;24.68;41.77;94579.44;6157481;28;103220;-76
2022/09/16 01:41:26;;;;;;;5.20;3.77;;;;;;;24.67;41.76;94574.38;6165026;28;104197;-76
2022/09/16 01:44:38;;;;;;;6.03;3.53;;;;;;;24.66;41.92;94568.25;6165006;28;103078;-76
2022/09/16 01:47:50;;;;;;;7.90;3.80;;;;;;;24.65;41.78;94547.19;6163817;28;104638;-75
2022/09/16 01:51:02;;;;;;;5.30;3.63;;;;;;;24.62;41.55;94558.56;6160795;28;104968;-74
2022/09/16 01:54:10;;;;;;;6.23;3.30;;;;;;;24.63;41.97;94592.22;6164347;28;103378;-74
2022/09/16 01:57:18;;;;;;;6.90;3.90;;;;;;;24.65;41.83;94581.97;6165107;28;103550;-75
2022/09/16 02:00:22;;;;;;;4.80;3.17;;;;;;;24.63;41.66;94560.91;6156716;28;103360;-76
2022/09/16 02:03:30;;;;;;;5.30;3.60;;;;;;;24.64;41.78;94575.84;6163683;28;103442;-75
2022/09/16 02:06:36;;;;;;;6.87;3.47;;;;;;;24.65;41.94;94568.59;6164140;28;103392;-76
2022/09/16 02:09:42;;;;;;;9.43;3.53;;;;;;;24.65;41.89;94563.22;6163588;28;103147;-76
2022/09/16 02:12:49;;;;;;;4.30;3.20;;;;;;;24.63;41.74;94552.09;6157517;28;103261;-74
2022/09/16 02:15:56;;;;;;;6.87;3.73;;;;;;;24.63;41.79;94560.91;6164551;28;106162;-77
2022/09/16 02:19:06;;;;;;;7.10;4.00;;;;;;;24.64;41.71;94550.97;6163737;28;103378;-76
2022/09/16 02:22:13;;;;;;;8.20;4.70;;;;;;;24.63;41.95;94554.75;6160528;28;103228;-75
2022/09/16 02:25:19;;;;;;;7.67;4.30;;;;;;;24.63;41.71;94560.91;6160025;28;103482;-75
2022/09/16 02:28:26;;;;;;;9.60;5.70;;;;;;;24.62;41.95;94561.22;6164431;28;103478;-75
2022/09/16 02:31:36;;;;;;;8.40;4.43;;;;;;;24.60;41.95;94563.47;6162807;28;103094;-74
2022/09/16 02:34:44;;;;;;;10.53;3.60;;;;;;;24.55;41.96;94558.34;6157640;28;103607;-76
2022/09/16 02:37:51;;;;;;;5.33;4.20;;;;;;;24.50;42.04;94556.63;6163724;28;104591;-75
2022/09/16 02:40:57;;;;;;;6.20;3.10;;;;;;;24.60;41.95;94560.78;6163591;28;103149;-76
2022/09/16 02:44:00;;;;;;;5.00;4.00;;;;;;;24.60;41.88;94574.16;6163120;28;103386;-76
2022/09/16 02:47:12;;;;;;;9.50;5.30;;;;;;;24.61;41.79;94586.44;6156304;28;102907;-76
2022/09/16 02:50:22;;;;;;;6.17;4.13;;;;;;;24.60;42.14;94560.78;6164034;28;103683;-75
2022/09/16 02:53:34;;;;;;;5.53;3.80;;;;;;;24.57;41.96;94566.81;6163059;28;103079;-77
2022/09/16 02:56:40;;;;;;;7.10;4.10;;;;;;;24.61;42.22;94576.50;6135396;28;103089;-76
2022/09/16 02:59:44;;;;;;;5.67;3.63;;;;;;;24.58;41.94;94561.13;6163594;28;104706;-78
2022/09/16 03:02:47;;;;;;;6.83;4.60;;;;;;;24.60;41.99;94569.59;6162465;28;102903;-75
2022/09/16 03:06:11;;;;;;;7.20;3.83;;;;;;;24.61;42.07;94579.19;6163377;28;103113;-74
2022/09/16 03:09:16;;;;;;;5.13;3.83;;;;;;;24.64;42.20;94593.78;6155333;28;103316;-73
2022/09/16 03:12:43;;;;;;;6.80;6.20;;;;;;;24.62;42.06;94586.09;6162263;28;103405;-73
2022/09/16 03:15:58;;;;;;;6.60;5.10;;;;;;;24.66;42.43;94591.56;6162017;28;103270;-73
2022/09/16 03:19:14;;;;;;;7.10;5.37;;;;;;;24.69;42.68;94591.69;6156937;28;103320;-75
2022/09/16 03:22:31;;;;;;;6.07;4.60;;;;;;;24.70;42.91;94595.94;6161538;28;106269;-74
2022/09/16 03:25:44;;;;;;;9.30;4.50;;;;;;;24.68;42.70;94598.16;6162844;28;103808;-74
2022/09/16 03:28:58;;;;;;;5.13;4.43;;;;;;;24.69;43.19;94602.38;6138365;28;103616;-74
2022/09/16 03:32:08;;;;;;;7.27;4.37;;;;;;;24.70;43.18;94598.63;6131410;28;103112;-75
2022/09/16 03:35:16;;;;;;;7.33;4.70;;;;;;;24.65;43.28;94600.69;6137865;28;104362;-71
2022/09/16 03:38:21;;;;;;;5.50;4.07;;;;;;;24.69;43.61;94597.03;6138154;28;103065;-73
2022/09/16 03:41:25;;;;;;;7.00;4.10;;;;;;;24.70;43.90;94595.19;6155252;28;103075;-74
2022/09/16 03:44:32;;;;;;;17.50;4.73;;;;;;;24.48;43.01;94594.41;6158333;28;103460;-72
2022/09/16 03:47:36;;;;;;;13.20;4.37;;;;;;;24.56;43.46;94581.28;6162466;28;103072;-73
2022/09/16 03:50:39;;;;;;;8.63;4.30;;;;;;;24.60;43.17;94574.94;6162205;28;103156;-74
2022/09/16 03:53:44;;;;;;;10.80;3.70;;;;;;;24.48;43.08;94575.69;6154755;28;103089;-76
2022/09/16 03:56:47;;;;;;;7.40;4.00;;;;;;;24.56;43.52;94584.75;6156089;28;103200;-77
2022/09/16 03:59:50;;;;;;;4.50;3.50;;;;;;;24.62;43.27;94580.75;6156409;28;103894;-76
2022/09/16 04:02:53;;;;;;;5.97;3.33;;;;;;;24.65;43.00;94571.25;6150849;28;103798;-76
2022/09/16 04:05:57;;;;;;;5.63;4.00;;;;;;;24.65;43.26;94573.94;6149913;28;103129;-76
2022/09/16 04:09:05;;;;;;;8.80;4.47;;;;;;;24.67;43.36;94571.69;6149467;28;104038;-74
2022/09/16 04:12:08;;;;;;;6.83;4.10;;;;;;;24.68;43.50;94584.00;6157692;28;103234;-74
2022/09/16 04:15:11;;;;;;;4.70;4.20;;;;;;;24.75;43.70;94587.69;6147563;28;105005;-77
2022/09/16 04:18:14;;;;;;;7.10;4.03;;;;;;;24.81;43.91;94596.28;6153413;28;103868;-73
2022/09/16 04:21:18;;;;;;;11.57;4.67;;;;;;;24.88;44.72;94614.47;6159203;28;103611;-74
2022/09/16 04:24:22;;;;;;;8.37;4.10;;;;;;;24.77;44.00;94616.81;6161346;28;102874;-73
2022/09/16 04:27:25;;;;;;;7.27;4.43;;;;;;;24.72;43.67;94622.38;6158310;28;103629;-73
2022/09/16 04:30:29;;;;;;;10.77;4.17;;;;;;;24.69;43.74;94633.72;6165598;28;103726;-73
2022/09/16 04:33:33;;;;;;;6.33;4.20;;;;;;;24.66;43.41;94624.44;6165972;28;103474;-74
2022/09/16 04:36:36;;;;;;;10.77;4.17;;;;;;;24.68;43.36;94616.88;6164845;28;102798;-74
2022/09/16 04:39:40;;;;;;;9.27;5.07;;;;;;;24.67;43.59;94626.00;6158593;28;106022;-75
2022/09/16 04:42:49;;;;;;;6.50;4.70;;;;;;;24.68;43.27;94621.47;6165718;28;103551;-73
2022/09/16 04:45:52;;;;;;;6.27;4.37;;;;;;;24.66;43.11;94607.59;6166244;28;103432;-73
2022/09/16 04:48:56;;;;;;;7.33;4.80;;;;;;;24.67;43.22;94625.22;6165033;28;103308;-73
2022/09/16 04:51:59;;;;;;;9.27;5.30;;;;;;;24.66;43.39;94626.34;6157870;28;103276;-73
2022/09/16 04:55:04;;;;;;;10.57;5.57;;;;;;;24.65;43.18;94627.44;6165198;28;103592;-74
2022/09/16 04:58:07;;;;;;;6.57;4.80;;;;;;;24.64;43.07;94631.25;6165998;28;104213;-74
2022/09/16 05:01:12;;;;;;;5.47;4.40;;;;;;;24.64;42.92;94628.56;6162553;28;103288;-73
2022/09/16 05:04:15;;;;;;;9.57;4.90;;;;;;;24.64;43.11;94625.88;6163725;28;104578;-73
2022/09/16 05:07:18;;;;;;;11.83;5.37;;;;;;;24.65;42.92;94627.44;6164050;28;103159;-73
2022/09/16 05:10:23;;;;;;;10.17;5.00;;;;;;;24.65;43.13;94619.41;6165643;28;103286;-74
2022/09/16 05:13:26;;;;;;;7.67;5.13;;;;;;;24.63;42.89;94617.09;6157979;28;103255;-75
2022/09/16 05:16:31;;;;;;;10.93;8.53;;;;;;;24.44;43.56;94622.16;6165733;28;103609;-75
2022/09/16 05:19:35;;;;;;;12.63;5.63;;;;;;;24.40;43.83;94624.72;6165777;28;103915;-75
2022/09/16 05:22:38;;;;;;;8.80;5.20;;;;;;;24.48;43.53;94617.72;6165647;28;105364;-75
2022/09/16 05:25:42;;;;;;;15.80;5.47;;;;;;;24.54;43.27;94607.59;6159382;28;103514;-77
2022/09/16 05:28:46;;;;;;;8.80;4.17;;;;;;;24.55;43.15;94596.56;6165413;28;103739;-75
2022/09/16 05:31:49;;;;;;;10.30;4.53;;;;;;;24.57;43.37;94593.56;6165742;28;103531;-75
2022/09/16 05:34:58;;;;;;;5.90;4.03;;;;;;;24.58;43.14;94603.94;6161629;28;103233;-74
2022/09/16 05:38:02;;;;;;;11.10;4.00;;;;;;;24.63;42.99;94597.56;6159794;28;103393;-74
2022/09/16 05:41:06;;;;;;;8.80;4.60;;;;;;;24.62;43.02;94602.13;6164645;28;103528;-75
2022/09/16 05:44:10;;;;;;;7.23;3.97;;;;;;;24.66;43.21;94603.03;6164812;28;103252;-74
2022/09/16 05:47:16;;;;;;;10.40;3.90;;;;;;;24.56;43.41;94592.78;6158336;28;103207;-74
2022/09/16 05:50:19;;;;;;;6.67;3.10;;;;;;;24.52;43.49;94593.75;6165133;28;103055;-74
2022/09/16 05:53:23;;;;;;;8.23;4.70;;;;;;;24.57;43.13;94590.88;6164884;28;103455;-76
2022/09/16 05:56:30;;;;;;;5.10;3.67;;;;;;;24.67;42.95;94595.78;6165241;28;103408;-75
2022/09/16 05:59:33;;;;;;;7.23;4.00;;;;;;;24.69;43.04;94599.72;6158542;28;103577;-75
2022/09/16 06:02:36;;;;;;;5.77;4.30;;;;;;;24.79;43.02;94596.63;6164895;28;103081;-75
2022/09/16 06:05:42;;;;;;;8.17;4.10;;;;;;;24.87;42.47;94591.50;6164309;28;103643;-76
2022/09/16 06:08:47;;;;;;;7.23;4.20;;;;;;;24.90;43.09;94588.94;6161121;28;103636;-75
2022/09/16 06:11:53;;;;;;;5.70;4.40;;;;;;;24.96;42.87;94590.25;6160661;28;103379;-75
2022/09/16 06:15:04;;;;;;;5.90;4.60;;;;;;;25.01;42.37;94591.94;6164797;28;103479;-75
2022/09/16 06:18:07;;;;;;;5.27;4.10;;;;;;;25.09;42.48;94599.09;6165423;28;102897;-75
2022/09/16 06:21:17;;;;;;;7.10;4.83;;;;;;;25.12;41.89;94586.91;6157827;28;103756;-75
2022/09/16 06:24:21;;;;;;;6.03;4.30;;;;;;;25.18;42.21;94597.06;6164806;28;103596;-76
2022/09/16 06:27:26;;;;;;;5.30;3.93;;;;;;;25.19;42.16;94592.47;6164541;28;102975;-75
2022/09/16 06:30:39;;;;;;;4.73;4.23;;;;;;;25.19;41.86;94579.88;6164617;28;103113;-75
2022/09/16 06:33:46;;;;;;;7.90;3.97;;;;;;;25.23;41.94;94582.66;6158342;28;103375;-75
2022/09/16 06:36:49;;;;;;;5.17;4.10;;;;;;;25.25;42.15;94583.13;6164659;28;103325;-75
2022/09/16 06:39:52;;;;;;;6.40;4.90;;;;;;;25.26;42.09;94588.13;6164067;28;103150;-75
2022/09/16 06:42:57;;;;;;;4.57;4.10;;;;;;;25.28;41.92;94579.75;6161343;28;103378;-75
2022/09/16 06:46:04;;;;;;;7.40;4.77;;;;;;;25.33;41.95;94587.56;6159813;28;103762;-75
2022/09/16 06:49:09;;;;;;;11.33;5.33;;;;;;;25.28;41.62;94585.88;6163451;28;103058;-76
2022/09/16 06:52:13;;;;;;;6.03;4.20;;;;;;;25.38;41.79;94596.19;6164004;28;103776;-75
2022/09/16 06:55:16;;;;;;;7.47;5.10;;;;;;;25.45;41.61;94597.50;6157315;28;103217;-75
2022/09/16 06:58:22;;;;;;;6.80;4.47;;;;;;;25.35;41.26;94591.47;6163450;28;103399;-75
2022/09/16 07:01:27;;;;;;;4.73;3.83;;;;;;;25.33;41.14;94593.69;6164506;28;103511;-74
2022/09/16 07:04:30;;;;;;;4.23;3.63;;;;;;;25.33;40.42;94574.16;6163440;28;103513;-75
2022/09/16 07:07:35;;;;;;;6.57;4.10;;;;;;;25.53;40.22;94596.56;6156012;28;103018;-76
2022/09/16 07:10:38;;;;;;;4.23;3.73;;;;;;;25.61;40.49;94609.09;6162685;28;103086;-76
2022/09/16 07:13:43;;;;;;;6.60;3.97;;;;;;;25.64;40.40;94605.72;6163571;28;103261;-76
2022/09/16 07:16:47;;;;;;;6.77;4.10;;;;;;;25.65;40.48;94605.38;6162371;28;102830;-76
2022/09/16 07:19:50;;;;;;;4.53;4.13;;;;;;;25.66;40.42;94603.47;6157657;28;104202;-75
2022/09/16 07:22:53;;;;;;;5.37;4.27;;;;;;;25.73;40.69;94606.38;6163229;28;103540;-75
2022/09/16 07:26:01;;;;;;;5.33;4.33;;;;;;;25.78;40.14;94597.31;6162872;28;103623;-75
2022/09/16 07:29:07;;;;;;;5.40;4.70;;;;;;;25.80;40.30;94592.38;6157139;28;103287;-74
2022/09/16 07:32:10;;;;;;;6.63;4.63;;;;;;;25.80;40.28;94605.78;6162847;28;103222;-75
2022/09/16 07:35:14;;;;;;;6.40;5.30;;;;;;;25.82;40.19;94590.91;6162891;28;103477;-75
2022/09/16 07:38:17;;;;;;;6.00;5.00;;;;;;;25.86;40.30;94593.69;6163562;28;105394;-73
2022/09/16 07:41:22;;;;;;;6.60;4.37;;;;;;;25.89;40.40;94593.03;6155767;28;106256;-76
2022/09/16 07:44:27;;;;;;;9.80;4.70;;;;;;;25.92;40.54;94577.03;6163279;28;104978;-75
2022/09/16 07:47:30;;;;;;;6.80;3.73;;;;;;;25.77;40.32;94564.38;6163523;28;106287;-75
2022/09/16 07:50:33;;;;;;;6.20;3.87;;;;;;;25.84;39.75;94548.47;6162398;28;104411;-74
2022/09/16 07:53:37;;;;;;;7.07;3.83;;;;;;;25.95;39.58;94559.50;6155885;28;103021;-74
2022/09/16 07:56:41;;;;;;;9.30;5.07;;;;;;;25.98;39.81;94558.81;6162890;28;103289;-74
2022/09/16 07:59:45;;;;;;;6.37;3.60;;;;;;;26.02;40.11;94557.00;6162979;28;103175;-74
2022/09/16 08:02:48;;;;;;;5.80;3.83;;;;;;;26.06;39.83;94555.22;6163093;28;103049;-74
2022/09/16 08:05:51;;;;;;;7.00;3.90;;;;;;;26.07;39.34;94547.97;6163892;28;103037;-74
2022/09/16 08:08:57;;;;;;;6.43;4.67;;;;;;;26.06;39.47;94549.88;6167401;28;106197;-74
2022/09/16 08:12:13;;;;;;;6.60;4.10;;;;;;;26.07;39.39;94535.34;6165925;28;103047;-74
2022/09/16 08:15:17;;;;;;;6.00;4.30;;;;;;;26.08;39.82;94542.25;6159405;28;103251;-73
2022/09/16 08:18:26;;;;;;;5.63;3.80;;;;;;;26.07;39.75;94545.28;6166576;28;103165;-74
2022/09/16 08:21:29;;;;;;;6.50;4.70;;;;;;;26.00;40.31;94548.53;6166413;28;103461;-73
2022/09/16 08:24:33;;;;;;;8.73;4.13;;;;;;;25.87;40.18;94536.28;6166031;28;103521;-75
2022/09/16 08:27:37;;;;;;;8.03;3.60;;;;;;;25.92;39.54;94546.78;6161943;28;103711;-74
2022/09/16 08:30:42;;;;;;;6.13;3.73;;;;;;;25.95;39.63;94538.03;6167092;28;104351;-73
2022/09/16 08:33:46;;;;;;;8.00;4.20;;;;;;;26.03;39.91;94530.97;6166502;28;103410;-73
2022/09/16 08:36:49;;;;;;;5.13;3.83;;;;;;;26.15;39.65;94520.97;6163794;28;106305;-74
2022/09/16 08:39:52;;;;;;;4.80;3.00;;;;;;;26.05;39.39;94537.59;6162430;28;103638;-73
2022/09/16 08:43:04;;;;;;;5.40;3.80;;;;;;;25.94;39.98;94517.72;6166080;28;103443;-73
2022/09/16 08:46:15;;;;;;;6.37;3.87;;;;;;;25.95;40.42;94517.38;6166233;28;103542;-74
2022/09/16 08:49:28;;;;;;;4.87;3.60;;;;;;;25.91;40.54;94513.81;6158477;28;103182;-74
2022/09/16 08:52:33;;;;;;;4.67;3.73;;;;;;;25.82;40.60;94499.00;6165968;28;103079;-75
2022/09/16 08:55:40;;;;;;;6.00;3.83;;;;;;;25.88;40.68;94495.75;6165977;28;104486;-75
2022/09/16 08:58:47;;;;;;;5.90;3.67;;;;;;;25.87;40.51;94498.75;6166678;28;104239;-74
2022/09/16 09:01:58;;;;;;;8.17;4.77;;;;;;;25.84;41.01;94504.78;6159887;28;103545;-75
2022/09/16 09:05:14;;;;;;;5.70;3.80;;;;;;;25.76;41.17;94509.19;6166436;28;103057;-74
2022/09/16 09:08:30;;;;;;;6.57;4.20;;;;;;;25.80;41.49;94506.59;6166844;28;103431;-75
2022/09/16 09:11:42;;;;;;;6.97;4.30;;;;;;;25.78;41.64;94509.63;6158714;28;103406;-75
2022/09/16 09:15:00;;;;;;;5.93;3.70;;;;;;;25.78;41.37;94514.22;6165340;28;103422;-74
2022/09/16 09:18:18;;;;;;;8.77;3.97;;;;;;;25.74;41.74;94521.38;6165416;28;103667;-74
2022/09/16 09:21:27;;;;;;;5.53;4.50;;;;;;;25.73;41.79;94519.84;6165706;28;103579;-75
2022/09/16 09:24:51;;;;;;;4.90;3.67;;;;;;;25.72;41.97;94515.59;6158692;28;103270;-74
2022/09/16 09:28:11;;;;;;;6.03;4.57;;;;;;;25.71;41.87;94520.19;6166352;28;103138;-74
2022/09/16 09:31:22;;;;;;;4.97;4.10;;;;;;;25.69;42.24;94525.06;6165408;28;103224;-74
2022/09/16 09:34:37;;;;;;;6.30;4.30;;;;;;;25.66;41.73;94501.63;6159441;28;103931;-75
2022/09/16 09:38:19;;;;;;;5.63;4.03;;;;;;;25.64;42.08;94512.69;6165712;28;103407;-74
2022/09/16 09:41:28;;;;;;;7.33;3.90;;;;;;;25.62;41.93;94508.81;6165791;28;103862;-74
2022/09/16 09:44:45;;;;;;;7.17;3.57;;;;;;;25.61;41.85;94497.31;6162638;28;103419;-75
2022/09/16 09:47:52;;;;;;;4.30;3.73;;;;;;;25.63;41.78;94513.03;6160611;28;103063;-74
2022/09/16 09:51:04;;;;;;;8.17;3.47;;;;;;;25.61;41.84;94515.28;6165928;28;102674;-75
2022/09/16 09:54:22;;;;;;;5.93;4.20;;;;;;;25.63;42.17;94521.09;6165113;28;104140;-74
2022/09/16 09:57:31;;;;;;;6.37;3.80;;;;;;;25.58;41.97;94519.44;6158963;28;103396;-74
2022/09/16 10:00:34;;;;;;;6.57;3.60;;;;;;;25.58;42.31;94527.47;6164816;28;102918;-74
2022/09/16 10:03:39;;;;;;;4.87;3.90;;;;;;;25.53;42.14;94522.34;6165313;28;106438;-74
2022/09/16 10:06:45;;;;;;;5.30;3.80;;;;;;;25.57;41.97;94533.19;6165105;28;103141;-74
2022/09/16 10:09:53;;;;;;;6.37;4.10;;;;;;;25.54;42.22;94542.69;6157816;28;102972;-73
2022/09/16 10:13:07;;;;;;;6.43;4.33;;;;;;;25.50;41.93;94555.16;6164494;28;103236;-74
2022/09/16 10:16:17;;;;;;;6.70;3.87;;;;;;;25.52;42.44;94577.03;6164796;28;103145;-75
2022/09/16 10:19:23;;;;;;;4.30;3.80;;;;;;;25.49;42.36;94580.41;6156897;28;103293;-76
2022/09/16 10:22:29;;;;;;;5.50;4.23;;;;;;;25.50;42.29;94598.03;6163538;28;103672;-76
2022/09/16 10:25:33;;;;;;;5.60;4.77;;;;;;;25.48;42.29;94619.03;6164771;28;103667;-76
2022/09/16 10:28:36;;;;;;;5.23;4.40;;;;;;;25.47;42.62;94649.63;6164528;28;104093;-76
2022/09/16 10:31:41;;;;;;;8.07;5.30;;;;;;;25.46;42.37;94661.47;6157301;28;103378;-75
2022/09/16 10:34:46;;;;;;;8.87;6.00;;;;;;;25.45;42.45;94689.38;6163772;28;103392;-75
2022/09/16 10:37:54;;;;;;;8.63;6.10;;;;;;;25.44;42.56;94705.78;6164499;28;104621;-75
2022/09/16 10:41:06;;;;;;;11.10;8.23;;;;;;;25.42;42.71;94710.69;6165115;28;105422;-75
2022/09/16 10:44:17;;;;;;;19.07;11.13;;;;;;;25.41;43.16;94717.19;6158693;28;104439;-75
2022/09/16 10:47:22;;;;;;;13.23;10.10;;;;;;;25.37;43.77;94735.78;6163775;28;103050;-76
2022/09/16 10:50:27;;;;;;;15.97;11.10;;;;;;;25.37;44.53;94744.63;6163832;28;103423;-75
2022/09/16 10:53:39;;;;;;;13.27;10.23;;;;;;;25.36;44.46;94764.47;6156129;28;103211;-75
2022/09/16 10:56:48;;;;;;;14.70;10.50;;;;;;;25.37;44.65;94760.72;6163972;28;106008;-75
2022/09/16 11:00:12;;;;;;;12.10;10.07;;;;;;;25.34;44.93;94725.72;6163850;28;103111;-74
2022/09/16 11:03:49;;;;;;;13.93;11.80;;;;;;;25.33;45.52;94710.75;6163803;28;103052;-76
2022/09/16 11:07:06;;;;;;;12.93;11.77;;;;;;;25.34;44.93;94709.66;6158792;28;104495;-76
2022/09/16 11:10:24;;;;;;;13.43;12.10;;;;;;;25.32;45.35;94693.13;6163647;28;103651;-74
2022/09/16 11:13:42;;;;;;;13.03;11.87;;;;;;;25.33;45.04;94670.59;6164088;28;103493;-75
2022/09/16 11:17:02;;;;;;;12.80;11.60;;;;;;;25.33;45.10;94647.25;6157439;28;106106;-75
2022/09/16 11:20:32;;;;;;;12.60;11.50;;;;;;;25.33;45.11;94641.13;6163610;28;103239;-75
2022/09/16 11:23:48;;;;;;;13.13;11.80;;;;;;;25.33;45.25;94625.06;6161318;28;103737;-74
2022/09/16 11:26:59;;;;;;;12.50;11.40;;;;;;;25.33;45.09;94617.00;6160608;28;103151;-75
2022/09/16 11:30:11;;;;;;;11.83;10.33;;;;;;;25.30;45.04;94596.25;6159741;28;103259;-75
2022/09/16 11:33:24;;;;;;;11.63;10.63;;;;;;;25.31;45.35;94595.16;6164033;28;102734;-75
2022/09/16 11:36:40;;;;;;;10.40;9.50;;;;;;;25.34;45.00;94583.75;6168424;28;103404;-75
2022/09/16 11:40:16;;;;;;;9.93;8.90;;;;;;;25.38;45.07;94569.41;6161128;28;103397;-74
2022/09/16 11:43:45;;;;;;;11.30;9.33;;;;;;;25.38;44.87;94568.63;6164823;28;103351;-74
2022/09/16 11:47:01;;;;;;;8.63;7.83;;;;;;;25.34;44.96;94552.38;6167595;28;104373;-74
2022/09/16 11:50:18;;;;;;;9.00;8.20;;;;;;;25.35;45.58;94548.63;6161619;28;103126;-74
2022/09/16 11:53:39;;;;;;;8.40;7.70;;;;;;;25.36;45.13;94544.03;6166856;28;103707;-75
2022/09/16 11:56:51;;;;;;;9.03;7.03;;;;;;;25.38;44.76;94552.53;6166298;28;103117;-74
2022/09/16 12:00:01;;;;;;;8.33;7.53;;;;;;;25.41;44.55;94553.75;6169446;28;103057;-79
2022/09/16 12:03:11;;;;;;;6.97;6.37;;;;;;;25.42;44.48;94545.38;6162605;28;105660;-79
2022/09/16 12:06:18;;;;;;;7.20;6.50;;;;;;;25.42;44.36;94531.22;6169188;28;102729;-80
2022/09/16 12:09:31;;;;;;;7.10;6.37;;;;;;;25.42;44.32;94529.31;6168759;28;103024;-79
2022/09/16 12:12:41;;;;;;;7.33;6.63;;;;;;;25.43;44.38;94532.78;6165012;28;103073;-80
2022/09/16 12:15:50;;;;;;;7.77;6.40;;;;;;;25.45;44.68;94527.84;6165990;28;103513;-79
2022/09/16 12:18:58;;;;;;;8.00;7.20;;;;;;;25.44;44.43;94537.00;6168113;28;103315;-78
2022/09/16 12:22:05;;;;;;;8.03;6.83;;;;;;;25.44;44.40;94550.41;6168420;28;102993;-79
2022/09/16 12:25:15;;;;;;;7.33;6.63;;;;;;;25.41;44.62;94538.47;6160194;28;103492;-80
2022/09/16 12:28:26;;;;;;;7.37;6.40;;;;;;;25.42;44.25;94542.72;6167888;28;103259;-80
2022/09/16 12:31:35;;;;;;;6.87;6.23;;;;;;;25.40;44.27;94552.97;6173958;28;103391;-79
2022/09/16 12:34:43;;;;;;;8.20;6.17;;;;;;;25.44;44.47;94569.94;6167003;28;103357;-80
2022/09/16 12:37:48;;;;;;;6.47;5.87;;;;;;;25.44;44.24;94572.63;6162627;28;104099;-79
2022/09/16 12:41:15;;;;;;;5.80;5.30;;;;;;;25.43;44.38;94568.38;6167955;28;103232;-79
2022/09/16 12:45:02;;;;;;;5.87;5.03;;;;;;;25.42;44.36;94592.81;6167506;28;103085;-79
2022/09/16 12:48:33;;;;;;;6.27;5.70;;;;;;;25.43;44.68;94579.09;6159240;28;103155;-79
2022/09/16 12:51:52;;;;;;;5.20;4.80;;;;;;;25.42;44.83;94595.50;6167594;28;103751;-79
2022/09/16 12:55:22;;;;;;;7.17;5.00;;;;;;;25.38;44.84;94606.13;6166759;28;103165;-79
2022/09/16 12:58:55;;;;;;;4.97;4.47;;;;;;;25.39;45.07;94615.72;6159990;28;106854;-78
2022/09/16 13:02:04;;;;;;;5.80;5.30;;;;;;;25.36;45.31;94614.47;6165481;28;103287;-79
2022/09/16 13:05:18;;;;;;;5.70;5.20;;;;;;;25.39;45.09;94639.81;6166025;28;103017;-79
2022/09/16 13:08:25;;;;;;;5.30;4.80;;;;;;;25.37;45.31;94642.03;6166433;28;103442;-78
2022/09/16 13:11:29;;;;;;;6.13;5.53;;;;;;;25.37;45.61;94636.69;6159550;28;103374;-78
2022/09/16 13:14:57;;;;;;;6.00;5.50;;;;;;;25.34;45.69;94658.75;6169655;28;103057;-81
2022/09/16 13:18:25;;;;;;;11.83;6.00;;;;;;;25.28;45.56;94663.56;6167391;28;102623;-79
2022/09/16 13:21:40;;;;;;;6.07;5.53;;;;;;;25.36;45.78;94662.69;6160364;28;103013;-78
2022/09/16 13:24:49;;;;;;;5.83;5.23;;;;;;;25.36;45.63;94683.34;6172219;28;103276;-78
2022/09/16 13:28:01;;;;;;;6.10;5.50;;;;;;;25.30;45.85;94665.91;6168111;28;103307;-81
2022/09/16 13:31:20;;;;;;;5.60;5.10;;;;;;;25.33;46.44;94667.91;6169106;28;103052;-79
2022/09/16 13:34:23;;;;;;;6.57;4.90;;;;;;;25.31;46.20;94660.22;6160540;28;103205;-79
2022/09/16 13:37:28;;;;;;;5.40;4.60;;;;;;;25.34;46.28;94661.44;6166731;28;107808;-79
2022/09/16 13:40:31;;;;;;;6.37;4.90;;;;;;;25.34;46.28;94642.69;6166565;28;103033;-79
2022/09/16 13:43:37;;;;;;;4.60;4.20;;;;;;;25.35;46.79;94636.22;6161080;28;103299;-79
2022/09/16 13:46:40;;;;;;;5.50;4.90;;;;;;;25.36;46.53;94608.34;6165954;28;104030;-79
2022/09/16 13:49:48;;;;;;;8.10;6.43;;;;;;;25.35;46.97;94596.84;6165198;28;103070;-80
2022/09/16 13:52:53;;;;;;;6.93;6.23;;;;;;;25.37;47.24;94556.31;6166136;28;103207;-80
2022/09/16 13:56:02;;;;;;;7.03;6.33;;;;;;;25.38;47.30;94528.44;6159614;28;104916;-80
2022/09/16 13:59:20;;;;;;;7.30;5.87;;;;;;;25.38;47.77;94523.09;6165294;28;103946;-79
2022/09/16 14:02:36;;;;;;;6.70;6.10;;;;;;;25.35;47.76;94519.16;6167405;28;103463;-79
2022/09/16 14:05:51;;;;;;;7.60;6.67;;;;;;;25.38;47.85;94531.91;6163709;28;103246;-78
2022/09/16 14:09:03;;;;;;;7.33;6.63;;;;;;;25.41;47.85;94556.44;6162173;28;102621;-80
2022/09/16 14:12:15;;;;;;;7.73;6.83;;;;;;;25.38;48.27;94558.69;6167269;28;105852;-81
2022/09/16 14:15:20;;;;;;;8.30;6.97;;;;;;;25.40;48.26;94570.97;6165249;28;103065;-80
2022/09/16 14:18:28;;;;;;;8.33;7.20;;;;;;;25.39;48.20;94575.53;6157792;28;105546;-79
2022/09/16 14:21:34;;;;;;;8.07;7.37;;;;;;;25.34;48.45;94589.09;6164380;28;103383;-78
2022/09/16 14:24:42;;;;;;;8.00;7.30;;;;;;;25.36;48.53;94598.41;6164348;28;103535;-79
2022/09/16 14:27:45;;;;;;;7.33;6.73;;;;;;;25.39;48.48;94602.31;6164768;28;103534;-79
2022/09/16 14:30:50;;;;;;;7.53;6.83;;;;;;;25.38;48.25;94596.19;6158199;28;103496;-79
2022/09/16 14:33:59;;;;;;;7.43;6.73;;;;;;;25.37;48.58;94583.09;6167391;28;103059;-80
2022/09/16 14:37:06;;;;;;;8.70;7.73;;;;;;;25.37;48.54;94564.34;6164155;28;103000;-76